Hovedside
METAR-TAF:

METAR-TAF

Lufthavner :

Borlänge, Sverige

Dala lufthavn

breddegrad: 60-26N, lengdegrad: 015-31E, høyde over havet: 145 m

Gjeldene værobservasjon

Denne rapporten ble laget for 23 minutter siden, klokken 04:20 UTC
Vind 7 kt fra Nord-nordøst
Temperatur 0°C
Luftfuktighet 100%
Trykk 989 hPa
Sikt: 2100 m
lett snø

METAR: ESSD 250420Z 02007KT 2100 -SN VV006 00/00 Q0989

Tid: 06:43 (04:43 UTC)

Varsel

Denne rapporten ble laget for 1 time og 13 minutter siden, klokken 03:30 UTC
Varsel gyldig fra 25. klokken 04 UTC til 25. klokken 12 UTC
Vind 7 kt fra Nord-nordøst
Sikt: 1200 m
i en høyde av 400 ft
snø
Midlertidig
fra 25. klokken 04 UTC til 25. klokken 10 UTC
Sikt: 5000 m
i en høyde av 1000 ft
lett snø
Blir
fra 25. klokken 10 UTC til 25. klokken 12 UTC
Sikt: 5000 m
Brutte skyer i en høyde av 1000 ft
lett snø, regn

TAF: ESSD 250330Z 2504/2512 02007KT 1200 SN VV004 TEMPO 2504/2510 5000 -SN VV010 BECMG 2510/2512 5000 -SNRA BKN010

Værobservasjoner og værvarsel for over 4000 flyplasser (METAR- og TAF-rapporter).

Tilgjengelige stasjoner er representert av de røde og gule prikkene på kartet.

Hold musepekeren over prikken for å se navnet på stasjonen.

Klikk så for å se værobservasjoner og -varsler.

For å forandre kartet kan du klikke på den grønne knappen med svart kryss for å zoome inn, på den grønne knappen med strek for å zoome ut, eller på de grønne pilene for å se tilstøtende kart.


METAR-TAF: